»·PEaware :: SKW4499 KSEA-KGEG

SKW4499 :: KSEA-KGEG

FLIGHT INFORMATION

Flight Status: Arrived
Operator:
SkyWest Airlines
More flights by this operator :: More flights under this callsign
Pilot: Varun S. (14197)
Aircraft: CANADAIR CL-600 CRJ-200
(CRJ2)
More flights by this aircraft type
Origin: KSEA Seattle-Tacoma Intl
United States
Destination: KGEG Spokane Intl
United States
More flights between these airports :: More routes between these airports
Route: +ATOME2 ZADON ZELAK ZIRAN ZOOMR ZOOMR1
File this flight plan on PilotEdge
Remarks:
Altitude:
(Current/Filed)
23,000ft
Speed:
(Current/Filed)
475kts
Departed: 21-May-18 08:20 PM
Arrived: 21-May-18 09:04 PM
Distance/Time
Traveled:
194nm/0:44
Distance/Time
To Go:
Arrived

Flight Plot

Page will automatically refresh every two minutes.

Flight plan parsing failed; only flown route is shown


Map Options




Map Legend


Flown Route
Filed Route
Departure Airport
Arrival Airport
Navaid (VOR, NDB)
Fix

Horizontal Profiles

Position Reports

Time Latitude Longitude Heading Altitude Ground
Speed
21-May-18 20:04 47.440508 -122.303786 6 438ft 0kts
21-May-18 20:05 47.440508 -122.303786 6 438ft 0kts
21-May-18 20:06 47.440508 -122.303786 6 438ft 0kts
21-May-18 20:07 47.440508 -122.303786 6 438ft 0kts
21-May-18 20:08 47.440508 -122.303786 6 438ft 0kts
21-May-18 20:09 47.440508 -122.303786 6 438ft 0kts
21-May-18 20:10 47.440305 -122.303818 6 438ft 5kts
21-May-18 20:11 47.440038 -122.303860 6 438ft 0kts
21-May-18 20:12 47.440038 -122.303860 6 438ft 0kts
21-May-18 20:13 47.440038 -122.303860 6 438ft 0kts
21-May-18 20:14 47.440038 -122.303860 6 438ft 0kts
21-May-18 20:15 47.440049 -122.303859 2 438ft 0kts
21-May-18 20:16 47.439776 -122.306201 226 438ft 12kts
21-May-18 20:17 47.435528 -122.305627 166 438ft 19kts
21-May-18 20:18 47.431166 -122.305845 241 438ft 0kts
21-May-18 20:19 47.431294 -122.307207 304 438ft 16kts
21-May-18 20:20 47.454523 -122.307854 359 1063ft 172kts
21-May-18 20:21 47.505695 -122.307989 358 5168ft 208kts
21-May-18 20:22 47.565779 -122.323306 326 9407ft 259kts
21-May-18 20:23 47.617748 -122.394813 299 13769ft 296kts
21-May-18 20:24 47.688501 -122.458865 11 18033ft 342kts
21-May-18 20:25 47.745068 -122.349614 92 21448ft 385kts
21-May-18 20:26 47.685949 -122.208590 131 23001ft 446kts
21-May-18 20:27 47.610622 -122.065876 109 23000ft 452kts
21-May-18 20:28 47.588723 -121.922542 101 23001ft 463kts
21-May-18 20:29 47.562624 -121.735764 95 23092ft 463kts
21-May-18 20:30 47.559850 -121.550148 90 22999ft 448kts
21-May-18 20:31 47.557220 -121.367084 90 22999ft 445kts
21-May-18 20:32 47.554308 -121.184721 91 22999ft 442kts
21-May-18 20:33 47.551123 -121.003214 91 22999ft 441kts
21-May-18 20:34 47.547851 -120.831828 91 22999ft 440kts
21-May-18 20:35 47.544114 -120.650577 91 23000ft 443kts
21-May-18 20:36 47.540047 -120.467476 91 23000ft 445kts
21-May-18 20:37 47.532904 -120.285237 94 23000ft 447kts
21-May-18 20:38 47.524386 -120.101695 94 23000ft 448kts
21-May-18 20:39 47.515539 -119.917657 94 22999ft 448kts
21-May-18 20:40 47.506474 -119.735201 94 22711ft 447kts
21-May-18 20:41 47.497346 -119.557161 94 20892ft 421kts
21-May-18 20:42 47.488479 -119.389181 94 19094ft 404kts
21-May-18 20:43 47.479611 -119.225718 94 17287ft 394kts
21-May-18 20:44 47.470522 -119.062482 94 15497ft 400kts
21-May-18 20:45 47.461225 -118.899711 94 13697ft 395kts
21-May-18 20:46 47.451817 -118.739021 94 11899ft 391kts
21-May-18 20:47 47.442366 -118.581376 94 10097ft 376kts
21-May-18 20:48 47.433206 -118.431982 94 8287ft 343kts
21-May-18 20:49 47.427223 -118.306749 79 6487ft 289kts
21-May-18 20:50 47.448554 -118.198781 73 5003ft 263kts
21-May-18 20:51 47.470096 -118.093808 73 4999ft 266kts
21-May-18 20:52 47.491492 -117.989418 73 5000ft 266kts
21-May-18 20:53 47.516447 -117.885824 69 5000ft 269kts
21-May-18 20:54 47.530838 -117.776803 79 5000ft 272kts
21-May-18 20:55 47.543584 -117.676983 79 5010ft 221kts
21-May-18 20:56 47.554468 -117.591883 78 4997ft 205kts
21-May-18 20:57 47.565871 -117.514878 73 4999ft 185kts
21-May-18 20:58 47.581088 -117.443345 50 4983ft 178kts
21-May-18 20:59 47.612588 -117.389414 48 4996ft 170kts
21-May-18 21:00 47.649615 -117.383472 303 4545ft 161kts
21-May-18 21:01 47.666315 -117.441902 262 4125ft 146kts
21-May-18 21:02 47.648883 -117.490902 227 2914ft 128kts
21-May-18 21:03 47.625091 -117.527481 225 2390ft 94kts
21-May-18 21:04 47.620173 -117.536613 253 2389ft 22kts
21-May-18 21:05 47.620845 -117.537903 46 2389ft 11kts
21-May-18 21:06 47.623180 -117.538396 0 2389ft 0kts
21-May-18 21:07 47.623180 -117.538396 0 2389ft 0kts
21-May-18 21:08 47.623180 -117.538396 0 2389ft 0kts

Navigation Log

Ident Type
Flight plan parsing failed, navigation log unavailable